createdAt,value
2023-02-08T00:01:59.295Z,7.97
2023-02-08T00:06:01.055Z,8.07
2023-02-08T00:10:05.112Z,7.47
2023-02-08T00:14:08.719Z,7.90
2023-02-08T00:18:10.669Z,7.70
2023-02-08T00:22:12.461Z,7.40
2023-02-08T00:26:15.225Z,7.53
2023-02-08T00:30:17.019Z,7.87
2023-02-08T00:34:18.681Z,7.12
2023-02-08T00:38:20.344Z,7.95
2023-02-08T00:42:22.015Z,7.60
2023-02-08T00:46:23.827Z,8.25
2023-02-08T00:50:25.820Z,7.32
2023-02-08T00:54:27.547Z,7.72
2023-02-08T00:58:29.217Z,6.25
2023-02-08T01:02:31.047Z,7.75
2023-02-08T01:06:33.274Z,7.50
2023-02-08T01:10:34.992Z,7.55
2023-02-08T01:14:38.807Z,7.35
2023-02-08T01:18:42.381Z,7.00
2023-02-08T01:22:44.034Z,7.57
2023-02-08T01:26:45.950Z,7.57
2023-02-08T01:30:47.622Z,7.45
2023-02-08T01:34:49.276Z,6.95
2023-02-08T01:38:51.206Z,7.18
2023-02-08T01:42:52.806Z,6.82
2023-02-08T01:46:54.431Z,7.40
2023-02-08T01:51:01.066Z,6.60
2023-02-08T01:59:17.840Z,7.10
2023-02-08T02:03:22.080Z,7.28
2023-02-08T02:07:28.115Z,6.72
2023-02-08T02:11:29.821Z,6.68
2023-02-08T02:15:31.514Z,7.10
2023-02-08T02:20:00.267Z,7.37
2023-02-08T02:24:56.609Z,6.85
2023-02-08T02:29:26.839Z,7.00
2023-02-08T02:33:57.507Z,7.07
2023-02-08T02:38:36.932Z,7.75
2023-02-08T02:43:16.007Z,7.95
2023-02-08T02:47:20.402Z,7.18
2023-02-08T02:51:41.818Z,6.75
2023-02-08T02:55:49.818Z,7.25
2023-02-08T02:59:52.015Z,6.93
2023-02-08T03:03:54.362Z,6.90
2023-02-08T03:08:14.722Z,6.95
2023-02-08T03:12:37.145Z,6.68
2023-02-08T03:17:00.143Z,6.10
2023-02-08T03:21:39.301Z,6.45
2023-02-08T03:25:49.809Z,6.72
2023-02-08T03:29:54.414Z,5.95
2023-02-08T03:34:15.120Z,6.18
2023-02-08T03:38:23.256Z,6.18
2023-02-08T03:42:27.864Z,6.40
2023-02-08T03:46:33.765Z,6.05
2023-02-08T03:50:39.728Z,6.50
2023-02-08T03:54:55.901Z,6.18
2023-02-08T03:59:04.316Z,6.53
2023-02-08T04:03:17.831Z,6.03
2023-02-08T04:07:20.179Z,6.43
2023-02-08T04:11:22.133Z,6.30
2023-02-08T04:15:23.840Z,6.37
2023-02-08T04:19:25.516Z,6.53
2023-02-08T04:23:27.142Z,5.90
2023-02-08T04:27:28.779Z,5.95
2023-02-08T04:31:30.617Z,6.05
2023-02-08T04:35:32.360Z,6.32
2023-02-08T04:39:34.092Z,6.45
2023-02-08T04:43:35.792Z,5.90
2023-02-08T04:47:37.499Z,6.18
2023-02-08T04:51:39.179Z,5.35
2023-02-08T04:55:40.848Z,6.10
2023-02-08T04:59:42.816Z,5.47
2023-02-08T05:03:44.530Z,5.45
2023-02-08T05:07:46.190Z,5.78
2023-02-08T05:11:47.897Z,5.70
2023-02-08T05:15:49.550Z,5.40
2023-02-08T05:19:51.338Z,5.43
2023-02-08T05:23:53.218Z,5.62
2023-02-08T05:27:54.968Z,5.55
2023-02-08T05:31:56.644Z,4.93
2023-02-08T05:35:58.392Z,5.30
2023-02-08T05:40:00.018Z,5.12
2023-02-08T05:44:01.701Z,5.18
2023-02-08T05:48:03.416Z,5.78
2023-02-08T05:52:05.259Z,4.80
2023-02-08T05:56:07.210Z,4.93
2023-02-08T06:00:09.855Z,5.18
2023-02-08T06:04:11.536Z,9.52
2023-02-08T06:08:13.214Z,8.00
2023-02-08T06:12:14.901Z,6.40
2023-02-08T06:16:19.807Z,5.70
2023-02-08T06:20:21.746Z,5.40
2023-02-08T06:24:25.089Z,5.90
2023-02-08T06:28:26.798Z,5.85
2023-02-08T06:32:28.509Z,5.25
2023-02-08T06:36:30.377Z,5.57
2023-02-08T06:40:32.011Z,7.75
2023-02-08T06:44:33.654Z,5.78
2023-02-08T06:48:35.791Z,5.70
2023-02-08T06:52:37.723Z,5.43
2023-02-08T06:56:39.377Z,5.95
2023-02-08T07:00:41.593Z,5.15
2023-02-08T07:04:45.197Z,5.45
2023-02-08T07:08:47.690Z,5.75
2023-02-08T07:12:49.310Z,11.98
2023-02-08T07:16:51.571Z,8.40
2023-02-08T07:20:53.306Z,6.28
2023-02-08T07:24:55.153Z,5.90
2023-02-08T07:28:58.434Z,5.60
2023-02-08T07:33:00.108Z,5.65
2023-02-08T07:37:02.102Z,5.43
2023-02-08T07:41:09.973Z,4.80
2023-02-08T07:45:11.607Z,5.12
2023-02-08T07:49:13.262Z,5.12
2023-02-08T07:53:14.916Z,5.37
2023-02-08T07:57:20.986Z,5.22
2023-02-08T08:01:23.229Z,5.70
2023-02-08T08:05:25.055Z,4.85
2023-02-08T08:09:26.817Z,5.57
2023-02-08T08:13:28.466Z,5.50
2023-02-08T08:17:30.333Z,5.70
2023-02-08T08:21:32.482Z,5.65
2023-02-08T08:25:34.423Z,5.30
2023-02-08T08:29:37.444Z,5.68
2023-02-08T08:33:39.196Z,5.80
2023-02-08T08:37:40.950Z,5.47
2023-02-08T08:41:43.616Z,5.43
2023-02-08T08:45:45.389Z,6.65
2023-02-08T08:49:47.194Z,4.72
2023-02-08T08:53:48.835Z,5.70
2023-02-08T08:57:53.330Z,9.40
2023-02-08T09:01:55.249Z,9.55
2023-02-08T09:05:57.064Z,11.32
2023-02-08T09:09:58.749Z,9.13
2023-02-08T09:14:04.574Z,7.50
2023-02-08T09:18:06.818Z,6.00
2023-02-08T09:22:08.884Z,5.60
2023-02-08T09:26:12.717Z,4.95
2023-02-08T09:30:14.507Z,4.80
2023-02-08T09:34:16.149Z,4.15
2023-02-08T09:38:17.990Z,4.05
2023-02-08T09:42:38.212Z,4.32
2023-02-08T09:46:43.729Z,4.28
2023-02-08T09:50:52.718Z,4.37
2023-02-08T09:55:01.346Z,3.53
2023-02-08T09:59:03.882Z,3.72
2023-02-08T10:03:08.793Z,3.70
2023-02-08T10:07:11.540Z,3.33
2023-02-08T10:11:25.188Z,3.78
2023-02-08T10:15:26.870Z,4.65
2023-02-08T10:19:43.266Z,3.50
2023-02-08T10:24:00.007Z,3.08
2023-02-08T10:28:20.431Z,2.80
2023-02-08T10:32:42.809Z,2.90
2023-02-08T10:36:44.495Z,2.60
2023-02-08T10:40:55.430Z,2.05
2023-02-08T10:45:25.006Z,2.10
2023-02-08T10:49:34.952Z,2.60
2023-02-08T10:53:36.648Z,2.65
2023-02-08T10:57:38.596Z,2.25
2023-02-08T11:01:40.481Z,2.55
2023-02-08T11:05:42.662Z,2.15
2023-02-08T11:09:44.452Z,2.37
2023-02-08T11:13:51.334Z,1.90
2023-02-08T11:17:59.265Z,1.70
2023-02-08T11:22:05.544Z,1.92
2023-02-08T11:26:23.815Z,1.97
2023-02-08T11:30:25.927Z,2.15
2023-02-08T11:34:39.123Z,1.83
2023-02-08T11:38:42.896Z,1.90
2023-02-08T11:42:44.977Z,1.75
2023-02-08T11:46:48.591Z,1.42
2023-02-08T11:50:55.914Z,1.52
2023-02-08T11:55:15.159Z,1.62
2023-02-08T11:59:22.569Z,1.60
2023-02-08T12:03:33.558Z,1.87
2023-02-08T12:08:01.112Z,2.10
2023-02-08T12:12:21.506Z,1.55
2023-02-08T12:16:50.995Z,1.60
2023-02-08T12:21:24.404Z,1.80
2023-02-08T12:25:32.901Z,2.35
2023-02-08T12:29:47.823Z,2.08
2023-02-08T12:34:10.770Z,2.00
2023-02-08T12:38:49.877Z,1.95
2023-02-08T12:42:56.205Z,2.00
2023-02-08T12:47:15.253Z,2.20
2023-02-08T12:51:34.786Z,2.08
2023-02-08T12:55:40.541Z,1.98
2023-02-08T13:00:25.474Z,1.95
2023-02-08T13:04:40.926Z,1.92
2023-02-08T13:08:55.002Z,2.20
2023-02-08T13:13:19.746Z,2.12
2023-02-08T13:17:28.064Z,2.30
2023-02-08T13:21:37.834Z,2.35
2023-02-08T13:25:41.970Z,2.03
2023-02-08T13:29:50.554Z,2.05
2023-02-08T13:34:02.459Z,2.10
2023-02-08T13:38:07.860Z,2.03
2023-02-08T13:42:28.509Z,1.87
2023-02-08T13:46:38.889Z,2.50
2023-02-08T13:50:56.968Z,2.33
2023-02-08T13:55:31.827Z,2.22
2023-02-08T13:59:41.781Z,2.15
2023-02-08T14:03:43.727Z,2.20
2023-02-08T14:07:47.662Z,2.35
2023-02-08T14:12:22.679Z,2.37
2023-02-08T14:16:35.770Z,2.47
2023-02-08T14:20:41.714Z,1.90
2023-02-08T14:24:48.129Z,2.60
2023-02-08T14:28:55.911Z,2.40
2023-02-08T14:33:07.380Z,2.42
2023-02-08T14:37:18.164Z,2.12
2023-02-08T14:41:49.164Z,2.40
2023-02-08T14:45:53.226Z,2.30
2023-02-08T14:50:04.374Z,2.20
2023-02-08T14:54:23.312Z,2.00
2023-02-08T14:58:30.843Z,2.83
2023-02-08T15:02:34.046Z,2.65
2023-02-08T15:06:38.569Z,2.50
2023-02-08T15:10:45.379Z,2.22
2023-02-08T15:14:47.353Z,2.62
2023-02-08T15:18:51.006Z,2.37
2023-02-08T15:23:01.772Z,2.53
2023-02-08T15:27:04.595Z,2.03
2023-02-08T15:31:14.723Z,2.45
2023-02-08T15:35:24.532Z,1.90
2023-02-08T15:39:41.095Z,2.10
2023-02-08T15:43:43.567Z,1.95
2023-02-08T15:47:45.534Z,2.17
2023-02-08T15:51:48.596Z,1.80
2023-02-08T15:56:02.438Z,2.08
2023-02-08T16:00:12.092Z,2.17
2023-02-08T16:04:13.695Z,1.92
2023-02-08T16:08:24.037Z,1.85
2023-02-08T16:12:27.626Z,1.90
2023-02-08T16:16:35.046Z,2.10
2023-02-08T16:20:36.978Z,1.92
2023-02-08T16:24:38.648Z,1.98
2023-02-08T16:28:40.370Z,2.37
2023-02-08T16:32:42.687Z,2.00
2023-02-08T16:36:47.675Z,2.40
2023-02-08T16:40:54.363Z,4.70
2023-02-08T16:45:18.110Z,2.67
2023-02-08T16:49:19.917Z,2.42
2023-02-08T16:53:25.969Z,2.10
2023-02-08T16:57:53.409Z,1.95
2023-02-08T17:01:57.348Z,1.85
2023-02-08T17:06:00.932Z,1.58
2023-02-08T17:10:07.340Z,1.77
2023-02-08T17:14:10.010Z,1.60
2023-02-08T17:18:13.231Z,1.52
2023-02-08T17:22:14.925Z,1.50
2023-02-08T17:26:28.431Z,1.15
2023-02-08T17:30:34.866Z,1.90
2023-02-08T17:34:36.577Z,7.37
2023-02-08T17:38:39.708Z,2.20
2023-02-08T17:42:41.447Z,2.22
2023-02-08T17:46:43.098Z,2.12
2023-02-08T17:50:50.662Z,2.70
2023-02-08T17:54:52.261Z,8.77
2023-02-08T17:58:55.184Z,9.73
2023-02-08T18:02:59.052Z,8.00
2023-02-08T18:07:02.141Z,6.35
2023-02-08T18:11:06.312Z,5.12
2023-02-08T18:15:11.915Z,5.15
2023-02-08T18:19:13.548Z,5.12
2023-02-08T18:23:15.261Z,5.05
2023-02-08T18:27:16.937Z,4.80
2023-02-08T18:31:22.550Z,4.97
2023-02-08T18:35:24.342Z,4.93
2023-02-08T18:39:26.494Z,4.30
2023-02-08T18:43:28.135Z,2.70
2023-02-08T18:47:29.818Z,2.67
2023-02-08T18:51:31.703Z,2.10
2023-02-08T18:55:33.472Z,2.30
2023-02-08T18:59:35.308Z,2.45
2023-02-08T19:03:37.730Z,2.30
2023-02-08T19:07:39.981Z,7.03
2023-02-08T19:11:43.902Z,7.10
2023-02-08T19:15:45.962Z,4.85
2023-02-08T19:19:47.836Z,3.83
2023-02-08T19:23:54.673Z,2.80
2023-02-08T19:31:58.461Z,3.53
2023-02-08T19:36:08.382Z,3.40
2023-02-08T19:40:11.147Z,3.78
2023-02-08T19:44:15.889Z,3.97
2023-02-08T19:48:17.717Z,4.07
2023-02-08T19:52:22.361Z,3.67
2023-02-08T19:56:23.999Z,3.62
2023-02-08T20:00:25.895Z,3.10
2023-02-08T20:04:27.577Z,4.10
2023-02-08T20:08:29.266Z,3.85
2023-02-08T20:12:30.935Z,3.58
2023-02-08T20:16:33.776Z,3.30
2023-02-08T20:20:36.371Z,3.30
2023-02-08T20:24:38.086Z,3.70
2023-02-08T20:28:44.260Z,3.65
2023-02-08T20:32:47.062Z,4.07
2023-02-08T20:37:05.819Z,3.20
2023-02-08T20:41:11.488Z,3.45
2023-02-08T20:45:15.052Z,3.37
2023-02-08T20:49:22.037Z,3.30
2023-02-08T20:53:23.697Z,3.20
2023-02-08T20:57:25.642Z,3.78
2023-02-08T21:01:28.411Z,3.37
2023-02-08T21:05:30.369Z,3.20
2023-02-08T21:09:32.324Z,3.70
2023-02-08T21:13:34.045Z,3.08
2023-02-08T21:17:38.640Z,4.32
2023-02-08T21:21:42.269Z,4.18
2023-02-08T21:25:44.681Z,3.60
2023-02-08T21:29:50.409Z,4.20
2023-02-08T21:33:52.462Z,3.87
2023-02-08T21:37:54.101Z,3.95
2023-02-08T21:41:55.743Z,3.75
2023-02-08T21:46:02.340Z,3.33
2023-02-08T21:50:22.820Z,3.97
2023-02-08T21:54:42.383Z,3.60
2023-02-08T21:58:44.060Z,3.45
2023-02-08T22:02:45.743Z,3.83
2023-02-08T22:06:50.186Z,4.15
2023-02-08T22:10:58.350Z,3.50
2023-02-08T22:15:00.384Z,4.12
2023-02-08T22:19:02.153Z,3.60
2023-02-08T22:23:04.599Z,3.83
2023-02-08T22:27:06.247Z,3.80
2023-02-08T22:31:07.983Z,3.47
2023-02-08T22:35:11.169Z,3.70
2023-02-08T22:39:12.891Z,3.53
2023-02-08T22:43:14.549Z,4.00
2023-02-08T22:47:16.504Z,3.92
2023-02-08T22:51:19.132Z,3.80
2023-02-08T22:55:20.807Z,4.07
2023-02-08T22:59:22.538Z,3.87
2023-02-08T23:03:24.625Z,3.90
2023-02-08T23:07:26.353Z,4.35
2023-02-08T23:11:28.200Z,4.93
2023-02-08T23:15:30.254Z,4.30
2023-02-08T23:19:31.904Z,4.32
2023-02-08T23:23:33.567Z,4.45
2023-02-08T23:27:35.325Z,4.32
2023-02-08T23:31:40.231Z,4.30
2023-02-08T23:35:42.046Z,4.62
2023-02-08T23:39:43.744Z,4.68
2023-02-08T23:43:45.704Z,5.60
2023-02-08T23:47:47.336Z,4.85
2023-02-08T23:51:48.972Z,4.62
2023-02-08T23:55:50.643Z,4.80
2023-02-08T23:59:52.286Z,5.00
